METAR Formatted Surface Weather Observation
Issued by NWS

Home | Current Version | Previous Version | Text Only | Print | Product List | Glossary On
Versions: 1 2 3 4 5 6 7 8 9 10 11 12 13 14 15 16 17 18 19 20 21 22 23 24 25 26 27 28 29 30 31 32 33 34 35 36 37 38 39 40 41 42 43 44 45 46 47 48 49 50
000
NZUS07 KPQR 201410
MTR4S2
METAR K4S2 201339Z AUTO 00000KT 7SM RA SCT017 BKN047 OVC060 13/12 A2975 RMK AO2 P0002 SLP084 T01300120



USA.gov is the U.S. government's official web portal to all federal, state and local government web resources and services.